sensor_id;sensor_type;location;lat;lon;timestamp;temperature;humidity
17845;DHT22;9047;53.486;10.218;2023-05-19T00:00:28;7.10;99.90
17845;DHT22;9047;53.486;10.218;2023-05-19T00:02:59;7.10;99.90
17845;DHT22;9047;53.486;10.218;2023-05-19T00:05:28;7.10;99.90
17845;DHT22;9047;53.486;10.218;2023-05-19T00:07:58;7.10;99.90
17845;DHT22;9047;53.486;10.218;2023-05-19T00:10:26;7.00;99.90
17845;DHT22;9047;53.486;10.218;2023-05-19T00:12:56;7.00;99.90
17845;DHT22;9047;53.486;10.218;2023-05-19T00:15:24;7.00;99.90
17845;DHT22;9047;53.486;10.218;2023-05-19T00:17:51;7.00;99.90
17845;DHT22;9047;53.486;10.218;2023-05-19T00:20:20;7.00;99.90
17845;DHT22;9047;53.486;10.218;2023-05-19T00:22:46;6.90;99.90
17845;DHT22;9047;53.486;10.218;2023-05-19T00:25:15;6.80;99.90
17845;DHT22;9047;53.486;10.218;2023-05-19T00:27:42;6.80;99.90
17845;DHT22;9047;53.486;10.218;2023-05-19T00:30:09;6.70;99.90
17845;DHT22;9047;53.486;10.218;2023-05-19T00:32:35;6.70;99.90
17845;DHT22;9047;53.486;10.218;2023-05-19T00:35:03;6.70;99.90
17845;DHT22;9047;53.486;10.218;2023-05-19T00:37:30;6.60;99.90
17845;DHT22;9047;53.486;10.218;2023-05-19T00:39:57;6.60;99.90
17845;DHT22;9047;53.486;10.218;2023-05-19T00:42:25;6.60;99.90
17845;DHT22;9047;53.486;10.218;2023-05-19T00:44:52;6.50;99.90
17845;DHT22;9047;53.486;10.218;2023-05-19T00:47:20;6.50;99.90
17845;DHT22;9047;53.486;10.218;2023-05-19T00:49:47;6.50;99.90
17845;DHT22;9047;53.486;10.218;2023-05-19T00:52:14;6.40;99.90
17845;DHT22;9047;53.486;10.218;2023-05-19T00:54:41;6.40;99.90
17845;DHT22;9047;53.486;10.218;2023-05-19T00:57:12;6.40;99.90
17845;DHT22;9047;53.486;10.218;2023-05-19T00:59:40;6.50;99.90
17845;DHT22;9047;53.486;10.218;2023-05-19T01:02:07;6.40;99.90
17845;DHT22;9047;53.486;10.218;2023-05-19T01:04:35;6.40;99.90
17845;DHT22;9047;53.486;10.218;2023-05-19T01:07:04;6.50;99.90
17845;DHT22;9047;53.486;10.218;2023-05-19T01:09:31;6.40;99.90
17845;DHT22;9047;53.486;10.218;2023-05-19T01:11:58;6.40;99.90
17845;DHT22;9047;53.486;10.218;2023-05-19T01:14:25;6.40;99.90
17845;DHT22;9047;53.486;10.218;2023-05-19T01:16:58;6.40;99.90
17845;DHT22;9047;53.486;10.218;2023-05-19T01:19:42;6.40;99.90
17845;DHT22;9047;53.486;10.218;2023-05-19T01:22:33;6.40;99.90
17845;DHT22;9047;53.486;10.218;2023-05-19T01:25:44;6.40;99.90
17845;DHT22;9047;53.486;10.218;2023-05-19T01:28:31;6.40;99.90
17845;DHT22;9047;53.486;10.218;2023-05-19T01:31:06;6.40;99.90
17845;DHT22;9047;53.486;10.218;2023-05-19T01:33:37;6.40;99.90
17845;DHT22;9047;53.486;10.218;2023-05-19T01:36:07;6.40;99.90
17845;DHT22;9047;53.486;10.218;2023-05-19T01:38:37;6.40;99.90
17845;DHT22;9047;53.486;10.218;2023-05-19T01:41:05;6.50;99.90
17845;DHT22;9047;53.486;10.218;2023-05-19T01:43:35;6.50;99.90
17845;DHT22;9047;53.486;10.218;2023-05-19T01:46:04;6.50;99.90
17845;DHT22;9047;53.486;10.218;2023-05-19T01:48:31;6.50;99.90
17845;DHT22;9047;53.486;10.218;2023-05-19T01:50:59;6.50;99.90
17845;DHT22;9047;53.486;10.218;2023-05-19T01:53:26;6.60;99.90
17845;DHT22;9047;53.486;10.218;2023-05-19T01:55:55;6.60;99.90
17845;DHT22;9047;53.486;10.218;2023-05-19T01:58:31;6.60;99.90
17845;DHT22;9047;53.486;10.218;2023-05-19T02:01:08;6.60;99.90
17845;DHT22;9047;53.486;10.218;2023-05-19T02:03:45;6.60;99.90
17845;DHT22;9047;53.486;10.218;2023-05-19T02:06:31;6.60;99.90
17845;DHT22;9047;53.486;10.218;2023-05-19T02:09:02;6.70;99.90
17845;DHT22;9047;53.486;10.218;2023-05-19T02:11:35;6.70;99.90
17845;DHT22;9047;53.486;10.218;2023-05-19T02:14:13;6.70;99.90
17845;DHT22;9047;53.486;10.218;2023-05-19T02:16:44;6.70;99.90
17845;DHT22;9047;53.486;10.218;2023-05-19T02:19:20;6.70;99.90
17845;DHT22;9047;53.486;10.218;2023-05-19T02:21:48;6.70;99.90
17845;DHT22;9047;53.486;10.218;2023-05-19T02:24:15;6.70;99.90
17845;DHT22;9047;53.486;10.218;2023-05-19T02:26:42;6.70;99.90
17845;DHT22;9047;53.486;10.218;2023-05-19T02:29:09;6.70;99.90
17845;DHT22;9047;53.486;10.218;2023-05-19T02:31:37;6.70;99.90
17845;DHT22;9047;53.486;10.218;2023-05-19T02:34:05;6.70;99.90
17845;DHT22;9047;53.486;10.218;2023-05-19T02:36:33;6.80;99.90
17845;DHT22;9047;53.486;10.218;2023-05-19T02:39:01;6.70;99.90
17845;DHT22;9047;53.486;10.218;2023-05-19T02:41:28;6.80;99.90
17845;DHT22;9047;53.486;10.218;2023-05-19T02:43:55;6.80;99.90
17845;DHT22;9047;53.486;10.218;2023-05-19T02:46:23;6.70;99.90
17845;DHT22;9047;53.486;10.218;2023-05-19T02:48:50;6.80;99.90
17845;DHT22;9047;53.486;10.218;2023-05-19T02:51:18;6.80;99.90
17845;DHT22;9047;53.486;10.218;2023-05-19T02:53:45;6.70;99.90
17845;DHT22;9047;53.486;10.218;2023-05-19T02:56:12;6.80;99.90
17845;DHT22;9047;53.486;10.218;2023-05-19T02:58:39;6.80;99.90
17845;DHT22;9047;53.486;10.218;2023-05-19T03:01:07;6.80;99.90
17845;DHT22;9047;53.486;10.218;2023-05-19T03:03:34;6.80;99.90
17845;DHT22;9047;53.486;10.218;2023-05-19T03:06:01;6.80;99.90
17845;DHT22;9047;53.486;10.218;2023-05-19T03:08:30;6.80;99.90
17845;DHT22;9047;53.486;10.218;2023-05-19T03:10:57;6.80;99.90
17845;DHT22;9047;53.486;10.218;2023-05-19T03:13:24;6.80;99.90
17845;DHT22;9047;53.486;10.218;2023-05-19T03:15:51;6.80;99.90
17845;DHT22;9047;53.486;10.218;2023-05-19T03:18:18;6.80;99.90
17845;DHT22;9047;53.486;10.218;2023-05-19T03:20:49;6.80;99.90
17845;DHT22;9047;53.486;10.218;2023-05-19T03:23:18;6.70;99.90
17845;DHT22;9047;53.486;10.218;2023-05-19T03:25:47;6.70;99.90
17845;DHT22;9047;53.486;10.218;2023-05-19T03:28:15;6.80;99.90
17845;DHT22;9047;53.486;10.218;2023-05-19T03:31:03;6.70;99.90
17845;DHT22;9047;53.486;10.218;2023-05-19T03:40:49;6.80;99.90
17845;DHT22;9047;53.486;10.218;2023-05-19T03:43:17;6.80;99.90
17845;DHT22;9047;53.486;10.218;2023-05-19T03:45:44;6.80;99.90
17845;DHT22;9047;53.486;10.218;2023-05-19T03:48:11;6.80;99.90
17845;DHT22;9047;53.486;10.218;2023-05-19T03:50:40;6.80;99.90
17845;DHT22;9047;53.486;10.218;2023-05-19T03:53:09;6.80;99.90
17845;DHT22;9047;53.486;10.218;2023-05-19T03:55:36;6.90;99.90
17845;DHT22;9047;53.486;10.218;2023-05-19T03:58:04;6.90;99.90
17845;DHT22;9047;53.486;10.218;2023-05-19T04:00:31;6.90;99.90
17845;DHT22;9047;53.486;10.218;2023-05-19T04:02:57;6.90;99.90
17845;DHT22;9047;53.486;10.218;2023-05-19T04:05:25;6.90;99.90
17845;DHT22;9047;53.486;10.218;2023-05-19T04:07:52;7.00;99.90
17845;DHT22;9047;53.486;10.218;2023-05-19T04:10:19;7.20;99.90
17845;DHT22;9047;53.486;10.218;2023-05-19T04:12:46;7.10;99.90
17845;DHT22;9047;53.486;10.218;2023-05-19T04:15:20;7.20;99.90
17845;DHT22;9047;53.486;10.218;2023-05-19T04:17:47;7.30;99.90
17845;DHT22;9047;53.486;10.218;2023-05-19T04:20:13;7.30;99.90
17845;DHT22;9047;53.486;10.218;2023-05-19T04:22:41;7.30;99.90
17845;DHT22;9047;53.486;10.218;2023-05-19T04:25:08;7.50;99.90
17845;DHT22;9047;53.486;10.218;2023-05-19T04:27:35;7.50;99.90
17845;DHT22;9047;53.486;10.218;2023-05-19T04:30:04;7.60;99.90
17845;DHT22;9047;53.486;10.218;2023-05-19T04:32:33;7.60;99.90
17845;DHT22;9047;53.486;10.218;2023-05-19T04:35:01;7.70;99.90
17845;DHT22;9047;53.486;10.218;2023-05-19T04:37:29;7.70;99.90
17845;DHT22;9047;53.486;10.218;2023-05-19T04:39:55;7.80;99.90
17845;DHT22;9047;53.486;10.218;2023-05-19T04:42:22;7.90;99.90
17845;DHT22;9047;53.486;10.218;2023-05-19T04:44:50;8.00;99.90
17845;DHT22;9047;53.486;10.218;2023-05-19T04:47:17;8.00;99.90
17845;DHT22;9047;53.486;10.218;2023-05-19T04:49:47;8.10;99.90
17845;DHT22;9047;53.486;10.218;2023-05-19T04:52:14;8.10;99.90
17845;DHT22;9047;53.486;10.218;2023-05-19T04:54:46;8.10;99.90
17845;DHT22;9047;53.486;10.218;2023-05-19T04:57:13;8.30;99.90
17845;DHT22;9047;53.486;10.218;2023-05-19T04:59:40;8.40;99.90
17845;DHT22;9047;53.486;10.218;2023-05-19T05:02:07;8.50;99.90
17845;DHT22;9047;53.486;10.218;2023-05-19T05:04:34;8.60;99.90
17845;DHT22;9047;53.486;10.218;2023-05-19T05:07:03;8.70;99.90
17845;DHT22;9047;53.486;10.218;2023-05-19T05:09:30;8.90;99.90
17845;DHT22;9047;53.486;10.218;2023-05-19T05:11:58;9.00;99.90
17845;DHT22;9047;53.486;10.218;2023-05-19T05:14:27;9.10;99.90
17845;DHT22;9047;53.486;10.218;2023-05-19T05:16:54;9.20;99.90
17845;DHT22;9047;53.486;10.218;2023-05-19T05:19:22;9.30;99.90
17845;DHT22;9047;53.486;10.218;2023-05-19T05:21:50;9.50;99.90
17845;DHT22;9047;53.486;10.218;2023-05-19T05:24:19;9.60;99.90
17845;DHT22;9047;53.486;10.218;2023-05-19T05:26:46;9.70;99.90
17845;DHT22;9047;53.486;10.218;2023-05-19T05:29:15;9.80;99.90
17845;DHT22;9047;53.486;10.218;2023-05-19T05:31:42;9.90;99.90
17845;DHT22;9047;53.486;10.218;2023-05-19T05:34:09;10.00;99.90
17845;DHT22;9047;53.486;10.218;2023-05-19T05:36:38;10.10;99.90
17845;DHT22;9047;53.486;10.218;2023-05-19T05:39:05;10.20;99.90
17845;DHT22;9047;53.486;10.218;2023-05-19T05:41:34;10.30;99.90
17845;DHT22;9047;53.486;10.218;2023-05-19T05:44:04;10.40;99.90
17845;DHT22;9047;53.486;10.218;2023-05-19T05:46:31;10.50;99.90
17845;DHT22;9047;53.486;10.218;2023-05-19T05:48:59;10.50;99.90
17845;DHT22;9047;53.486;10.218;2023-05-19T05:51:26;10.70;99.90
17845;DHT22;9047;53.486;10.218;2023-05-19T05:53:54;10.80;99.90
17845;DHT22;9047;53.486;10.218;2023-05-19T05:56:21;10.90;99.90
17845;DHT22;9047;53.486;10.218;2023-05-19T05:58:50;11.00;99.90
17845;DHT22;9047;53.486;10.218;2023-05-19T06:01:17;11.20;99.90
17845;DHT22;9047;53.486;10.218;2023-05-19T06:03:45;11.40;99.90
17845;DHT22;9047;53.486;10.218;2023-05-19T06:06:12;11.50;99.90
17845;DHT22;9047;53.486;10.218;2023-05-19T06:08:39;11.70;99.90
17845;DHT22;9047;53.486;10.218;2023-05-19T06:11:10;11.80;99.90
17845;DHT22;9047;53.486;10.218;2023-05-19T06:13:38;12.00;99.90
17845;DHT22;9047;53.486;10.218;2023-05-19T06:16:10;12.30;99.90
17845;DHT22;9047;53.486;10.218;2023-05-19T06:18:37;12.50;99.90
17845;DHT22;9047;53.486;10.218;2023-05-19T06:21:06;12.90;99.90
17845;DHT22;9047;53.486;10.218;2023-05-19T06:23:34;13.30;99.90
17845;DHT22;9047;53.486;10.218;2023-05-19T06:26:05;13.80;99.90
17845;DHT22;9047;53.486;10.218;2023-05-19T06:28:32;14.00;99.90
17845;DHT22;9047;53.486;10.218;2023-05-19T06:30:58;14.20;99.90
17845;DHT22;9047;53.486;10.218;2023-05-19T06:33:27;14.30;99.90
17845;DHT22;9047;53.486;10.218;2023-05-19T06:35:53;14.50;99.90
17845;DHT22;9047;53.486;10.218;2023-05-19T06:38:20;14.70;99.90
17845;DHT22;9047;53.486;10.218;2023-05-19T06:40:48;15.00;99.90
17845;DHT22;9047;53.486;10.218;2023-05-19T06:43:15;15.30;99.90
17845;DHT22;9047;53.486;10.218;2023-05-19T06:45:42;15.60;99.90
17845;DHT22;9047;53.486;10.218;2023-05-19T06:48:09;16.00;99.90
17845;DHT22;9047;53.486;10.218;2023-05-19T06:50:37;16.40;99.90
17845;DHT22;9047;53.486;10.218;2023-05-19T06:53:04;16.80;99.90
17845;DHT22;9047;53.486;10.218;2023-05-19T06:55:31;17.10;99.90
17845;DHT22;9047;53.486;10.218;2023-05-19T06:57:58;17.00;99.90
17845;DHT22;9047;53.486;10.218;2023-05-19T07:00:25;17.00;99.90
17845;DHT22;9047;53.486;10.218;2023-05-19T07:02:52;16.90;99.90
17845;DHT22;9047;53.486;10.218;2023-05-19T07:05:19;16.70;99.90
17845;DHT22;9047;53.486;10.218;2023-05-19T07:07:47;16.50;99.90
17845;DHT22;9047;53.486;10.218;2023-05-19T07:10:14;16.50;99.90
17845;DHT22;9047;53.486;10.218;2023-05-19T07:12:41;16.50;99.90
17845;DHT22;9047;53.486;10.218;2023-05-19T07:15:09;16.60;99.90
17845;DHT22;9047;53.486;10.218;2023-05-19T07:17:36;16.80;99.90
17845;DHT22;9047;53.486;10.218;2023-05-19T07:20:05;16.90;99.90
17845;DHT22;9047;53.486;10.218;2023-05-19T07:22:39;17.00;99.90
17845;DHT22;9047;53.486;10.218;2023-05-19T07:25:09;17.40;99.90
17845;DHT22;9047;53.486;10.218;2023-05-19T07:27:36;17.40;99.90
17845;DHT22;9047;53.486;10.218;2023-05-19T07:30:09;17.70;99.90
17845;DHT22;9047;53.486;10.218;2023-05-19T07:32:36;18.10;99.90
17845;DHT22;9047;53.486;10.218;2023-05-19T07:35:04;18.60;99.70
17845;DHT22;9047;53.486;10.218;2023-05-19T07:37:34;18.60;99.10
17845;DHT22;9047;53.486;10.218;2023-05-19T07:40:01;18.90;99.10
17845;DHT22;9047;53.486;10.218;2023-05-19T07:42:32;19.20;97.80
17845;DHT22;9047;53.486;10.218;2023-05-19T07:44:59;19.10;97.40
17845;DHT22;9047;53.486;10.218;2023-05-19T07:47:28;18.70;97.20
17845;DHT22;9047;53.486;10.218;2023-05-19T07:49:55;18.20;98.90
17845;DHT22;9047;53.486;10.218;2023-05-19T07:52:22;18.30;98.80
17845;DHT22;9047;53.486;10.218;2023-05-19T07:54:48;19.00;98.30
17845;DHT22;9047;53.486;10.218;2023-05-19T07:57:15;19.40;98.00
17845;DHT22;9047;53.486;10.218;2023-05-19T07:59:44;19.50;96.60
17845;DHT22;9047;53.486;10.218;2023-05-19T08:02:11;19.50;96.50
17845;DHT22;9047;53.486;10.218;2023-05-19T08:04:38;19.70;95.90
17845;DHT22;9047;53.486;10.218;2023-05-19T08:07:06;20.10;96.00
17845;DHT22;9047;53.486;10.218;2023-05-19T08:09:33;20.40;94.30
17845;DHT22;9047;53.486;10.218;2023-05-19T08:12:00;20.70;94.30
17845;DHT22;9047;53.486;10.218;2023-05-19T08:14:29;20.90;92.80
17845;DHT22;9047;53.486;10.218;2023-05-19T08:16:59;20.70;93.70
17845;DHT22;9047;53.486;10.218;2023-05-19T08:19:26;20.40;93.00
17845;DHT22;9047;53.486;10.218;2023-05-19T08:21:55;20.00;93.40
17845;DHT22;9047;53.486;10.218;2023-05-19T08:24:25;19.50;94.00
17845;DHT22;9047;53.486;10.218;2023-05-19T08:26:54;19.30;94.30
17845;DHT22;9047;53.486;10.218;2023-05-19T08:29:21;19.10;94.90
17845;DHT22;9047;53.486;10.218;2023-05-19T08:31:48;19.00;94.50
17845;DHT22;9047;53.486;10.218;2023-05-19T08:34:18;18.80;94.90
17845;DHT22;9047;53.486;10.218;2023-05-19T08:36:46;18.60;94.10
17845;DHT22;9047;53.486;10.218;2023-05-19T08:39:16;18.50;94.50
17845;DHT22;9047;53.486;10.218;2023-05-19T08:41:51;18.50;94.20
17845;DHT22;9047;53.486;10.218;2023-05-19T08:44:19;18.40;94.70
17845;DHT22;9047;53.486;10.218;2023-05-19T08:46:48;18.30;94.70
17845;DHT22;9047;53.486;10.218;2023-05-19T08:49:22;18.30;94.90
17845;DHT22;9047;53.486;10.218;2023-05-19T08:51:59;18.40;95.00
17845;DHT22;9047;53.486;10.218;2023-05-19T08:54:31;18.40;94.60
17845;DHT22;9047;53.486;10.218;2023-05-19T08:57:00;18.40;95.00
17845;DHT22;9047;53.486;10.218;2023-05-19T08:59:28;18.40;95.90
17845;DHT22;9047;53.486;10.218;2023-05-19T09:01:56;18.50;95.70
17845;DHT22;9047;53.486;10.218;2023-05-19T09:04:25;18.70;95.00
17845;DHT22;9047;53.486;10.218;2023-05-19T09:06:53;18.80;94.90
17845;DHT22;9047;53.486;10.218;2023-05-19T09:09:20;18.90;94.50
17845;DHT22;9047;53.486;10.218;2023-05-19T09:11:47;18.90;95.20
17845;DHT22;9047;53.486;10.218;2023-05-19T09:14:14;18.90;94.80
17845;DHT22;9047;53.486;10.218;2023-05-19T09:16:41;18.90;94.10
17845;DHT22;9047;53.486;10.218;2023-05-19T09:19:12;18.80;94.00
17845;DHT22;9047;53.486;10.218;2023-05-19T09:21:45;18.70;93.80
17845;DHT22;9047;53.486;10.218;2023-05-19T09:24:12;18.70;93.70
17845;DHT22;9047;53.486;10.218;2023-05-19T09:26:40;18.80;94.10
17845;DHT22;9047;53.486;10.218;2023-05-19T09:29:12;19.00;94.10
17845;DHT22;9047;53.486;10.218;2023-05-19T09:31:42;19.10;93.80
17845;DHT22;9047;53.486;10.218;2023-05-19T09:34:13;19.10;92.90
17845;DHT22;9047;53.486;10.218;2023-05-19T09:36:45;19.20;92.70
17845;DHT22;9047;53.486;10.218;2023-05-19T09:39:19;19.00;92.70
17845;DHT22;9047;53.486;10.218;2023-05-19T09:41:46;19.00;92.80
17845;DHT22;9047;53.486;10.218;2023-05-19T09:44:21;19.00;92.80
17845;DHT22;9047;53.486;10.218;2023-05-19T09:46:49;18.90;93.40
17845;DHT22;9047;53.486;10.218;2023-05-19T09:49:20;19.00;93.50
17845;DHT22;9047;53.486;10.218;2023-05-19T09:51:53;19.10;93.20
17845;DHT22;9047;53.486;10.218;2023-05-19T09:54:20;19.20;93.50
17845;DHT22;9047;53.486;10.218;2023-05-19T09:56:51;19.20;93.50
17845;DHT22;9047;53.486;10.218;2023-05-19T09:59:19;19.30;93.80
17845;DHT22;9047;53.486;10.218;2023-05-19T10:01:53;19.30;93.00
17845;DHT22;9047;53.486;10.218;2023-05-19T10:04:22;19.50;92.60
17845;DHT22;9047;53.486;10.218;2023-05-19T10:06:52;19.60;92.80
17845;DHT22;9047;53.486;10.218;2023-05-19T10:09:25;19.70;91.90
17845;DHT22;9047;53.486;10.218;2023-05-19T10:11:55;19.60;91.80
17845;DHT22;9047;53.486;10.218;2023-05-19T10:14:25;19.70;92.40
17845;DHT22;9047;53.486;10.218;2023-05-19T10:16:54;19.80;91.50
17845;DHT22;9047;53.486;10.218;2023-05-19T10:19:23;19.90;91.60
17845;DHT22;9047;53.486;10.218;2023-05-19T10:21:54;20.00;92.20
17845;DHT22;9047;53.486;10.218;2023-05-19T10:24:28;20.20;91.20
17845;DHT22;9047;53.486;10.218;2023-05-19T10:26:59;20.20;91.30
17845;DHT22;9047;53.486;10.218;2023-05-19T10:29:32;20.10;91.60
17845;DHT22;9047;53.486;10.218;2023-05-19T10:32:07;20.20;91.00
17845;DHT22;9047;53.486;10.218;2023-05-19T10:37:56;20.40;91.00
17845;DHT22;9047;53.486;10.218;2023-05-19T10:40:29;20.40;90.60
17845;DHT22;9047;53.486;10.218;2023-05-19T10:43:12;20.40;90.10
17845;DHT22;9047;53.486;10.218;2023-05-19T10:45:46;20.20;88.90
17845;DHT22;9047;53.486;10.218;2023-05-19T10:48:13;20.10;89.80
17845;DHT22;9047;53.486;10.218;2023-05-19T10:50:43;20.10;89.90
17845;DHT22;9047;53.486;10.218;2023-05-19T10:53:16;20.10;89.20
17845;DHT22;9047;53.486;10.218;2023-05-19T10:55:45;20.20;90.20
17845;DHT22;9047;53.486;10.218;2023-05-19T10:58:13;20.30;90.40
17845;DHT22;9047;53.486;10.218;2023-05-19T11:00:40;20.50;90.00
17845;DHT22;9047;53.486;10.218;2023-05-19T11:03:15;20.50;89.10
17845;DHT22;9047;53.486;10.218;2023-05-19T11:05:43;20.60;88.50
17845;DHT22;9047;53.486;10.218;2023-05-19T11:08:30;20.70;88.40
17845;DHT22;9047;53.486;10.218;2023-05-19T11:11:11;20.90;87.90
17845;DHT22;9047;53.486;10.218;2023-05-19T11:13:45;21.00;86.60
17845;DHT22;9047;53.486;10.218;2023-05-19T11:16:12;21.10;86.40
17845;DHT22;9047;53.486;10.218;2023-05-19T11:18:40;21.20;86.50
17845;DHT22;9047;53.486;10.218;2023-05-19T11:21:07;21.10;85.10
17845;DHT22;9047;53.486;10.218;2023-05-19T11:23:37;21.00;86.90
17845;DHT22;9047;53.486;10.218;2023-05-19T11:26:06;21.00;87.50
17845;DHT22;9047;53.486;10.218;2023-05-19T11:28:34;20.90;87.40
17845;DHT22;9047;53.486;10.218;2023-05-19T11:31:04;20.80;86.70
17845;DHT22;9047;53.486;10.218;2023-05-19T11:33:36;20.80;86.90
17845;DHT22;9047;53.486;10.218;2023-05-19T11:36:03;20.90;85.00
17845;DHT22;9047;53.486;10.218;2023-05-19T11:38:31;21.00;84.70
17845;DHT22;9047;53.486;10.218;2023-05-19T11:41:03;21.20;84.00
17845;DHT22;9047;53.486;10.218;2023-05-19T11:43:30;21.40;82.80
17845;DHT22;9047;53.486;10.218;2023-05-19T11:45:58;21.30;81.60
17845;DHT22;9047;53.486;10.218;2023-05-19T11:48:25;21.20;84.60
17845;DHT22;9047;53.486;10.218;2023-05-19T11:51:23;21.30;83.90
17845;DHT22;9047;53.486;10.218;2023-05-19T11:53:52;21.60;85.40
17845;DHT22;9047;53.486;10.218;2023-05-19T11:56:21;21.80;84.90
17845;DHT22;9047;53.486;10.218;2023-05-19T11:58:52;22.00;83.40
17845;DHT22;9047;53.486;10.218;2023-05-19T12:01:25;22.20;79.40
17845;DHT22;9047;53.486;10.218;2023-05-19T12:03:53;22.20;75.40
17845;DHT22;9047;53.486;10.218;2023-05-19T12:06:20;22.30;75.90
17845;DHT22;9047;53.486;10.218;2023-05-19T12:08:49;22.20;76.60
17845;DHT22;9047;53.486;10.218;2023-05-19T12:11:16;22.00;78.90
17845;DHT22;9047;53.486;10.218;2023-05-19T12:13:57;21.80;79.80
17845;DHT22;9047;53.486;10.218;2023-05-19T12:16:32;22.10;80.50
17845;DHT22;9047;53.486;10.218;2023-05-19T12:19:00;22.20;78.50
17845;DHT22;9047;53.486;10.218;2023-05-19T12:21:31;22.20;78.20
17845;DHT22;9047;53.486;10.218;2023-05-19T12:24:01;21.90;79.70
17845;DHT22;9047;53.486;10.218;2023-05-19T12:26:33;21.80;79.40
17845;DHT22;9047;53.486;10.218;2023-05-19T12:29:05;21.70;80.40
17845;DHT22;9047;53.486;10.218;2023-05-19T12:31:33;21.60;81.20
17845;DHT22;9047;53.486;10.218;2023-05-19T12:34:00;21.40;81.00
17845;DHT22;9047;53.486;10.218;2023-05-19T12:36:28;21.30;82.10
17845;DHT22;9047;53.486;10.218;2023-05-19T12:38:57;21.20;81.90
17845;DHT22;9047;53.486;10.218;2023-05-19T12:41:26;21.30;82.90
17845;DHT22;9047;53.486;10.218;2023-05-19T12:43:54;21.40;80.70
17845;DHT22;9047;53.486;10.218;2023-05-19T12:46:33;21.60;80.50
17845;DHT22;9047;53.486;10.218;2023-05-19T12:49:00;21.70;79.90
17845;DHT22;9047;53.486;10.218;2023-05-19T12:51:27;21.50;81.10
17845;DHT22;9047;53.486;10.218;2023-05-19T12:53:55;21.40;81.50
17845;DHT22;9047;53.486;10.218;2023-05-19T12:56:24;21.40;79.90
17845;DHT22;9047;53.486;10.218;2023-05-19T12:58:54;21.50;78.80
17845;DHT22;9047;53.486;10.218;2023-05-19T13:01:21;21.50;80.10
17845;DHT22;9047;53.486;10.218;2023-05-19T13:03:52;21.40;80.90
17845;DHT22;9047;53.486;10.218;2023-05-19T13:06:18;21.40;83.60
17845;DHT22;9047;53.486;10.218;2023-05-19T13:08:46;21.30;83.30
17845;DHT22;9047;53.486;10.218;2023-05-19T13:11:16;21.10;84.00
17845;DHT22;9047;53.486;10.218;2023-05-19T13:13:47;20.90;84.50
17845;DHT22;9047;53.486;10.218;2023-05-19T13:16:14;20.80;84.40
17845;DHT22;9047;53.486;10.218;2023-05-19T13:18:43;20.80;84.80
17845;DHT22;9047;53.486;10.218;2023-05-19T13:21:12;21.00;84.50
17845;DHT22;9047;53.486;10.218;2023-05-19T13:23:39;21.30;83.80
17845;DHT22;9047;53.486;10.218;2023-05-19T13:26:06;21.50;83.80
17845;DHT22;9047;53.486;10.218;2023-05-19T13:28:33;21.80;82.50
17845;DHT22;9047;53.486;10.218;2023-05-19T13:31:01;21.80;82.30
17845;DHT22;9047;53.486;10.218;2023-05-19T13:33:28;21.70;81.90
17845;DHT22;9047;53.486;10.218;2023-05-19T13:35:55;21.40;83.30
17845;DHT22;9047;53.486;10.218;2023-05-19T13:38:24;21.20;85.00
17845;DHT22;9047;53.486;10.218;2023-05-19T13:40:52;20.80;85.70
17845;DHT22;9047;53.486;10.218;2023-05-19T13:43:20;20.50;87.30
17845;DHT22;9047;53.486;10.218;2023-05-19T13:45:47;20.20;88.20
17845;DHT22;9047;53.486;10.218;2023-05-19T13:48:14;20.10;89.10
17845;DHT22;9047;53.486;10.218;2023-05-19T13:50:42;20.00;89.20
17845;DHT22;9047;53.486;10.218;2023-05-19T13:53:09;19.90;89.70
17845;DHT22;9047;53.486;10.218;2023-05-19T13:55:38;19.80;90.00
17845;DHT22;9047;53.486;10.218;2023-05-19T13:58:05;20.00;90.20
17845;DHT22;9047;53.486;10.218;2023-05-19T14:00:35;20.00;89.60
17845;DHT22;9047;53.486;10.218;2023-05-19T14:03:02;20.20;89.60
17845;DHT22;9047;53.486;10.218;2023-05-19T14:05:29;20.50;90.00
17845;DHT22;9047;53.486;10.218;2023-05-19T14:07:59;21.10;88.30
17845;DHT22;9047;53.486;10.218;2023-05-19T14:10:28;21.50;86.80
17845;DHT22;9047;53.486;10.218;2023-05-19T14:12:56;21.70;87.40
17845;DHT22;9047;53.486;10.218;2023-05-19T14:15:24;21.70;86.70
17845;DHT22;9047;53.486;10.218;2023-05-19T14:17:53;21.50;87.30
17845;DHT22;9047;53.486;10.218;2023-05-19T14:20:22;21.30;88.00
17845;DHT22;9047;53.486;10.218;2023-05-19T14:22:49;21.10;88.60
17845;DHT22;9047;53.486;10.218;2023-05-19T14:25:20;21.00;89.00
17845;DHT22;9047;53.486;10.218;2023-05-19T14:27:46;20.90;89.70
17845;DHT22;9047;53.486;10.218;2023-05-19T14:30:15;20.80;90.00
17845;DHT22;9047;53.486;10.218;2023-05-19T14:32:41;20.70;90.20
17845;DHT22;9047;53.486;10.218;2023-05-19T14:35:08;20.60;90.80
17845;DHT22;9047;53.486;10.218;2023-05-19T14:37:35;20.50;90.70
17845;DHT22;9047;53.486;10.218;2023-05-19T14:40:02;20.50;90.60
17845;DHT22;9047;53.486;10.218;2023-05-19T14:42:30;20.60;90.60
17845;DHT22;9047;53.486;10.218;2023-05-19T14:44:56;20.70;90.80
17845;DHT22;9047;53.486;10.218;2023-05-19T14:47:28;20.90;90.70
17845;DHT22;9047;53.486;10.218;2023-05-19T14:49:55;21.20;90.60
17845;DHT22;9047;53.486;10.218;2023-05-19T14:52:24;21.30;90.30
17845;DHT22;9047;53.486;10.218;2023-05-19T14:54:53;21.40;90.30
17845;DHT22;9047;53.486;10.218;2023-05-19T14:57:20;21.30;90.40
17845;DHT22;9047;53.486;10.218;2023-05-19T14:59:47;21.30;89.70
17845;DHT22;9047;53.486;10.218;2023-05-19T15:02:14;21.20;90.10
17845;DHT22;9047;53.486;10.218;2023-05-19T15:04:42;21.10;90.20
17845;DHT22;9047;53.486;10.218;2023-05-19T15:07:09;20.90;90.20
17845;DHT22;9047;53.486;10.218;2023-05-19T15:09:36;20.70;90.60
17845;DHT22;9047;53.486;10.218;2023-05-19T15:12:08;20.50;90.70
17845;DHT22;9047;53.486;10.218;2023-05-19T15:14:35;20.40;90.70
17845;DHT22;9047;53.486;10.218;2023-05-19T15:17:02;20.40;91.00
17845;DHT22;9047;53.486;10.218;2023-05-19T15:19:28;20.60;90.90
17845;DHT22;9047;53.486;10.218;2023-05-19T15:21:57;20.70;90.80
17845;DHT22;9047;53.486;10.218;2023-05-19T15:24:24;20.80;90.70
17845;DHT22;9047;53.486;10.218;2023-05-19T15:26:51;20.80;90.70
17845;DHT22;9047;53.486;10.218;2023-05-19T15:29:19;20.80;90.50
17845;DHT22;9047;53.486;10.218;2023-05-19T15:31:49;20.80;90.70
17845;DHT22;9047;53.486;10.218;2023-05-19T15:34:16;20.70;90.70
17845;DHT22;9047;53.486;10.218;2023-05-19T15:36:43;20.60;90.80
17845;DHT22;9047;53.486;10.218;2023-05-19T15:39:11;20.50;91.30
17845;DHT22;9047;53.486;10.218;2023-05-19T15:41:38;20.40;91.30
17845;DHT22;9047;53.486;10.218;2023-05-19T15:44:05;20.60;90.80
17845;DHT22;9047;53.486;10.218;2023-05-19T15:46:33;20.50;91.00
17845;DHT22;9047;53.486;10.218;2023-05-19T15:49:00;20.50;91.00
17845;DHT22;9047;53.486;10.218;2023-05-19T15:51:27;20.40;91.00
17845;DHT22;9047;53.486;10.218;2023-05-19T15:53:54;20.30;91.00
17845;DHT22;9047;53.486;10.218;2023-05-19T15:56:22;20.20;91.00